Time;durP1;ratioP1;P1;durP2;ratioP2;P2;SDS_P1;SDS_P2;PMS_P1;PMS_P2;Temp;Humidity;BMP_temperature;BMP_pressure;BME280_temperature;BME280_humidity;BME280_pressure;Samples;Min_cycle;Max_cycle;Signal;HPM_P1;HPM_P2
2022/11/08 00:16:19;;;;;;;9.73;5.33;;;9.00;99.90;;;;;;10357744;28;20209;-83
2022/11/08 00:21:41;;;;;;;10.77;4.67;;;9.00;99.90;;;;;;10343893;28;20230;-82
2022/11/08 00:27:04;;;;;;;9.33;5.10;;;8.90;99.90;;;;;;10385973;28;20383;-83
2022/11/08 00:32:25;;;;;;;8.90;5.77;;;8.90;99.90;;;;;;10376629;28;20495;-83
2022/11/08 00:37:46;;;;;;;9.70;5.60;;;8.80;99.90;;;;;;10371236;28;20207;-83
2022/11/08 00:43:08;;;;;;;11.30;5.60;;;8.70;99.90;;;;;;10371309;28;20204;-83
2022/11/08 00:48:29;;;;;;;7.63;4.73;;;8.70;99.90;;;;;;10342822;28;20209;-82
2022/11/08 00:53:50;;;;;;;6.60;4.10;;;8.60;99.90;;;;;;10356676;28;20260;-83
2022/11/08 00:59:13;;;;;;;6.50;4.20;;;8.50;99.90;;;;;;10341998;28;20241;-83
2022/11/08 01:04:35;;;;;;;8.53;4.90;;;8.50;99.90;;;;;;10341484;28;20424;-82
2022/11/08 01:09:56;;;;;;;7.50;4.57;;;8.50;99.90;;;;;;10340759;28;20305;-82
2022/11/08 01:15:18;;;;;;;8.07;4.70;;;8.50;99.90;;;;;;10355811;28;20197;-82
2022/11/08 01:20:40;;;;;;;6.17;4.07;;;8.40;99.90;;;;;;11216041;23;20570;-82
2022/11/08 01:26:04;;;;;;;9.47;4.57;;;8.40;99.90;;;;;;10376741;28;20195;-82
2022/11/08 01:31:28;;;;;;;8.87;4.80;;;8.30;99.90;;;;;;10395186;28;20266;-82
2022/11/08 01:36:49;;;;;;;6.10;4.80;;;8.30;99.90;;;;;;10374680;28;20195;-82
2022/11/08 01:42:11;;;;;;;7.00;5.47;;;8.30;99.90;;;;;;10340652;28;20238;-82
2022/11/08 01:47:32;;;;;;;7.13;4.73;;;8.30;99.90;;;;;;10340546;28;20585;-82
2022/11/08 01:52:54;;;;;;;7.63;5.17;;;8.30;99.90;;;;;;10341086;28;20194;-82
2022/11/08 01:58:21;;;;;;;9.33;5.00;;;8.30;99.90;;;;;;10354048;28;20201;-82
2022/11/08 02:03:42;;;;;;;7.97;4.30;;;8.30;99.90;;;;;;10340007;28;20492;-82
2022/11/08 02:09:07;;;;;;;9.83;4.67;;;8.30;99.90;;;;;;10327009;28;20423;-82
2022/11/08 02:14:29;;;;;;;8.40;4.37;;;8.30;99.90;;;;;;10354097;28;20199;-82
2022/11/08 02:19:50;;;;;;;7.43;4.63;;;8.30;99.90;;;;;;10347579;28;20575;-82
2022/11/08 02:25:12;;;;;;;10.80;6.27;;;8.30;99.90;;;;;;10388573;28;20549;-82
2022/11/08 02:30:35;;;;;;;9.63;5.17;;;8.20;99.90;;;;;;10387699;28;20418;-82
2022/11/08 02:35:56;;;;;;;12.60;5.53;;;8.20;99.90;;;;;;10374231;28;20202;-82
2022/11/08 02:41:18;;;;;;;12.33;5.57;;;8.20;99.90;;;;;;10387911;28;20249;-82
2022/11/08 02:46:39;;;;;;;8.90;5.73;;;8.10;99.90;;;;;;10387542;28;20203;-82
2022/11/08 02:52:00;;;;;;;9.43;5.97;;;8.10;99.90;;;;;;10387538;28;20201;-82
2022/11/08 02:57:21;;;;;;;8.80;6.10;;;8.10;99.90;;;;;;10359564;28;20506;-82
2022/11/08 03:02:42;;;;;;;10.50;5.10;;;8.10;99.90;;;;;;10360226;28;20237;-83
2022/11/08 03:08:04;;;;;;;10.17;5.40;;;8.00;99.90;;;;;;10360331;28;20194;-82
2022/11/08 03:13:24;;;;;;;7.47;5.13;;;8.00;99.90;;;;;;10360246;28;20234;-82
2022/11/08 03:18:46;;;;;;;6.37;4.43;;;8.00;99.90;;;;;;10359561;28;20218;-83
2022/11/08 03:24:08;;;;;;;7.87;5.00;;;7.90;99.90;;;;;;10340603;28;20295;-83
2022/11/08 03:29:29;;;;;;;7.77;5.23;;;7.90;99.90;;;;;;10373184;28;20521;-82
2022/11/08 03:34:50;;;;;;;8.43;5.70;;;7.90;99.90;;;;;;10359128;28;20378;-82
2022/11/08 03:40:11;;;;;;;9.03;6.67;;;7.80;99.90;;;;;;10344540;28;20233;-83
2022/11/08 03:45:33;;;;;;;12.07;6.13;;;7.80;99.90;;;;;;10372143;28;20197;-82
2022/11/08 03:50:54;;;;;;;7.23;4.77;;;7.80;99.90;;;;;;10344144;28;20285;-82
2022/11/08 03:56:16;;;;;;;8.77;4.73;;;7.90;99.90;;;;;;10357998;28;20206;-82
2022/11/08 04:01:38;;;;;;;8.90;5.53;;;7.90;99.90;;;;;;10357596;28;20267;-82
2022/11/08 04:06:59;;;;;;;10.17;5.13;;;7.90;99.90;;;;;;10343930;28;20198;-82
2022/11/08 04:23:40;;;;;;;8.27;4.73;;;8.00;99.90;;;;;;10382727;28;20233;-83
2022/11/08 04:29:04;;;;;;;8.67;4.57;;;8.00;99.90;;;;;;10383784;28;20492;-83
2022/11/08 04:34:25;;;;;;;7.07;4.70;;;7.90;99.90;;;;;;10398138;28;20235;-82
2022/11/08 04:39:46;;;;;;;7.97;4.57;;;8.00;99.90;;;;;;10382709;28;20450;-82
2022/11/08 04:45:08;;;;;;;7.47;4.90;;;8.00;99.90;;;;;;10385202;28;20207;-82
2022/11/08 04:50:29;;;;;;;6.73;4.70;;;8.00;99.90;;;;;;10401646;28;20275;-83
2022/11/08 04:55:50;;;;;;;10.07;7.93;;;8.00;99.90;;;;;;10383081;28;20194;-82
2022/11/08 05:01:14;;;;;;;13.43;6.90;;;8.10;99.90;;;;;;10368692;28;20288;-83
2022/11/08 05:06:35;;;;;;;9.97;5.47;;;8.10;99.90;;;;;;10382015;28;20272;-82
2022/11/08 05:11:56;;;;;;;7.47;4.57;;;8.10;99.90;;;;;;10381664;28;20205;-82
2022/11/08 05:17:18;;;;;;;10.30;5.20;;;8.10;99.90;;;;;;10396160;28;20262;-82
2022/11/08 05:28:19;;;;;;;26.60;12.97;;;8.20;99.90;;;;;;10379721;28;20204;-82
2022/11/08 05:33:40;;;;;;;16.90;10.07;;;8.30;99.90;;;;;;10393910;28;20196;-83
2022/11/08 05:39:02;;;;;;;9.93;6.80;;;8.30;99.90;;;;;;10379663;28;20524;-83
2022/11/08 05:44:23;;;;;;;12.20;8.07;;;8.30;99.90;;;;;;10379484;28;20208;-82
2022/11/08 05:49:44;;;;;;;12.50;6.03;;;8.30;99.90;;;;;;10394157;28;20217;-82
2022/11/08 05:55:06;;;;;;;11.30;6.17;;;8.30;99.90;;;;;;10372981;28;20245;-82
2022/11/08 06:00:27;;;;;;;8.17;5.60;;;8.40;99.90;;;;;;10400257;28;20235;-82
2022/11/08 06:05:48;;;;;;;10.63;5.57;;;8.40;99.90;;;;;;10372602;28;20409;-82
2022/11/08 06:11:16;;;;;;;8.60;5.10;;;8.40;99.90;;;;;;10399648;28;20206;-83
2022/11/08 06:16:37;;;;;;;9.87;5.63;;;8.50;99.90;;;;;;10399579;28;20195;-82
2022/11/08 06:21:58;;;;;;;10.10;5.33;;;8.50;99.90;;;;;;10339709;28;1251051;-83
2022/11/08 06:27:19;;;;;;;12.37;7.43;;;8.60;99.90;;;;;;10347286;28;20231;-83
2022/11/08 06:32:41;;;;;;;12.87;7.13;;;8.60;99.90;;;;;;10347651;28;20457;-83
2022/11/08 06:38:02;;;;;;;12.53;7.33;;;8.60;99.90;;;;;;10333126;28;20203;-82
2022/11/08 06:43:27;;;;;;;12.43;7.47;;;8.70;99.90;;;;;;10346548;28;20241;-82
2022/11/08 06:48:57;;;;;;;12.70;6.00;;;8.60;99.90;;;;;;10335344;28;20200;-82
2022/11/08 06:54:19;;;;;;;14.93;6.77;;;8.70;99.90;;;;;;10335835;28;20256;-82
2022/11/08 06:59:41;;;;;;;15.20;8.07;;;8.70;99.90;;;;;;10347373;28;20222;-82
2022/11/08 07:05:03;;;;;;;11.30;7.07;;;8.80;99.90;;;;;;10332783;28;20221;-82
2022/11/08 07:10:27;;;;;;;20.40;11.50;;;8.80;99.90;;;;;;10346546;28;20219;-82
2022/11/08 07:15:48;;;;;;;23.30;11.53;;;8.90;99.90;;;;;;10333096;28;20227;-82
2022/11/08 07:21:09;;;;;;;14.97;9.33;;;9.00;99.90;;;;;;10359841;28;20262;-82
2022/11/08 07:26:31;;;;;;;13.20;9.20;;;9.00;99.90;;;;;;10345245;28;20204;-82
2022/11/08 07:31:52;;;;;;;19.00;10.30;;;9.10;99.90;;;;;;10345678;28;20199;-81
2022/11/08 07:37:13;;;;;;;17.87;9.27;;;9.20;99.90;;;;;;10344494;28;20209;-82
2022/11/08 07:42:38;;;;;;;16.80;9.53;;;9.20;99.90;;;;;;10358650;28;20230;-83
2022/11/08 07:48:16;;;;;;;16.60;9.83;;;9.20;99.90;;;;;;10359243;28;20199;-82
2022/11/08 07:53:38;;;;;;;23.43;12.33;;;9.30;99.90;;;;;;10339483;28;20231;-83
2022/11/08 07:58:59;;;;;;;12.73;7.80;;;9.40;99.90;;;;;;10377094;28;20269;-83
2022/11/08 08:04:20;;;;;;;15.50;8.90;;;9.50;99.90;;;;;;10356863;28;20423;-82
2022/11/08 08:09:42;;;;;;;26.03;13.53;;;9.60;99.90;;;;;;10389785;28;20198;-83
2022/11/08 08:15:03;;;;;;;14.93;8.10;;;9.80;99.90;;;;;;10355317;28;20507;-82
2022/11/08 08:20:25;;;;;;;12.03;6.97;;;10.00;99.90;;;;;;10376638;28;20261;-82
2022/11/08 08:25:46;;;;;;;13.03;6.40;;;10.00;99.90;;;;;;10395252;28;20200;-83
2022/11/08 08:31:07;;;;;;;13.60;8.57;;;10.10;99.90;;;;;;10365560;28;20725;-86
2022/11/08 08:36:28;;;;;;;18.20;8.10;;;10.30;99.90;;;;;;10376554;28;20265;-84
2022/11/08 08:41:50;;;;;;;11.30;6.70;;;10.30;99.90;;;;;;10377381;28;20547;-83
2022/11/08 08:47:11;;;;;;;17.67;8.90;;;10.30;99.90;;;;;;10391757;28;20275;-83
2022/11/08 08:52:32;;;;;;;14.40;6.10;;;10.30;99.90;;;;;;10329886;28;20223;-87
2022/11/08 08:57:54;;;;;;;10.73;5.57;;;10.30;99.90;;;;;;10372998;28;20436;-94
2022/11/08 09:03:15;;;;;;;15.07;5.97;;;10.60;99.90;;;;;;10377122;28;20235;-83
2022/11/08 09:08:37;;;;;;;15.63;7.53;;;;;;;;;;10350974;28;20501;-83
2022/11/08 09:13:58;;;;;;;18.93;7.80;;;;;;;;;;10326590;28;20200;-85
2022/11/08 09:19:20;;;;;;;26.23;11.47;;;;;;;;;;10391721;28;20251;-83
2022/11/08 09:24:41;;;;;;;15.97;8.13;;;;;;;;;;10360409;28;20224;-83
2022/11/08 09:30:03;;;;;;;14.63;6.40;;;;;;;;;;10364711;28;20384;-81
2022/11/08 09:35:25;;;;;;;14.60;7.47;;;;;;;;;;10365655;28;20206;-85
2022/11/08 09:41:07;;;;;;;16.83;8.53;;;;;;;;;;10376909;28;20248;-90
2022/11/08 09:46:52;;;;;;;15.60;7.43;;;;;;;;;;10334420;28;20209;-84
2022/11/08 09:52:19;;;;;;;20.87;10.40;;;;;;;;;;10339810;28;20231;-82
2022/11/08 09:57:50;;;;;;;15.27;6.63;;;;;;;;;;10353955;28;20202;-83
2022/11/08 10:03:15;;;;;;;12.10;7.20;;;;;;;;;;10340119;28;20252;-82
2022/11/08 10:08:43;;;;;;;16.43;8.37;;;;;;;;;;10359736;28;20288;-84
2022/11/08 10:14:07;;;;;;;17.40;8.13;;;;;;;;;;10373573;28;20471;-86
2022/11/08 10:19:47;;;;;;;12.60;5.20;;;11.50;99.90;;;;;;10357109;28;20244;-84
2022/11/08 10:25:35;;;;;;;10.37;5.17;;;11.50;99.90;;;;;;10362647;28;20515;-85
2022/11/08 10:30:57;;;;;;;13.33;5.57;;;;;;;;;;10335521;28;20202;-86
2022/11/08 10:36:19;;;;;;;12.63;4.97;;;;;;;;;;10343214;28;20194;-83
2022/11/08 10:41:51;;;;;;;8.73;4.63;;;13.10;99.90;;;;;;10364570;28;20234;-82
2022/11/08 10:47:25;;;;;;;10.43;5.30;;;12.30;99.90;;;;;;10376820;28;20455;-83
2022/11/08 10:53:01;;;;;;;12.13;6.80;;;12.20;99.90;;;;;;10365536;28;20199;-81
2022/11/08 10:58:36;;;;;;;10.63;4.00;;;12.20;99.90;;;;;;10381851;28;20217;-88
2022/11/08 11:04:07;;;;;;;18.80;4.33;;;12.40;99.90;;;;;;10350179;28;20226;-87
2022/11/08 11:09:29;;;;;;;15.83;5.70;;;12.50;99.90;;;;;;10384664;28;20205;-85
2022/11/08 11:14:57;;;;;;;9.10;4.60;;;12.60;99.90;;;;;;10379813;28;20185;-84
2022/11/08 11:20:21;;;;;;;12.20;5.27;;;12.60;99.90;;;;;;10367633;28;20449;-83
2022/11/08 11:25:50;;;;;;;13.53;5.57;;;12.60;99.90;;;;;;10368766;28;20235;-84
2022/11/08 11:31:15;;;;;;;11.90;4.97;;;13.10;99.90;;;;;;10395499;28;20262;-83
2022/11/08 11:36:37;;;;;;;9.60;4.15;;;;;;;;;;10367772;28;20446;-85
2022/11/08 11:42:02;;;;;;;9.63;3.97;;;;;;;;;;10378091;28;20252;-85
2022/11/08 11:47:32;;;;;;;9.35;3.88;;;;;;;;;;10358042;28;20260;-84
2022/11/08 11:52:59;;;;;;;7.68;4.03;;;19.00;1.00;;;;;;10369161;28;20803;-85
2022/11/08 11:58:22;;;;;;;7.25;3.80;;;18.10;1.00;;;;;;10356777;28;20663;-83
2022/11/08 12:03:52;;;;;;;17.70;7.68;;;16.90;99.90;;;;;;10374889;28;20407;-86
2022/11/08 12:09:42;;;;;;;10.68;6.13;;;16.00;99.90;;;;;;10353292;28;20198;-84
2022/11/08 12:15:18;;;;;;;8.88;4.78;;;15.50;99.90;;;;;;10294538;28;20220;-85
2022/11/08 12:20:53;;;;;;;14.90;6.75;;;15.50;1.00;;;;;;10329654;28;20253;-86
2022/11/08 12:26:39;;;;;;;11.05;6.47;;;15.70;99.90;;;;;;10360808;28;20212;-84
2022/11/08 12:32:13;;;;;;;7.45;4.18;;;16.20;1.00;;;;;;10335861;28;20531;-85
2022/11/08 12:38:06;;;;;;;6.68;3.63;;;17.10;1.00;;;;;;10279749;28;20492;-84
2022/11/08 12:43:48;;;;;;;6.68;3.80;;;18.00;90.40;;;;;;10311263;28;20598;-85
2022/11/08 12:49:22;;;;;;;6.20;2.85;;;18.80;1.00;;;;;;10324682;28;20515;-86
2022/11/08 12:54:59;;;;;;;9.55;3.90;;;18.80;99.90;;;;;;10348397;28;20288;-86
2022/11/08 13:00:21;;;;;;;5.53;3.25;;;17.60;1.00;;;;;;10323679;28;20589;-89
2022/11/08 13:05:51;;;;;;;10.45;3.75;;;16.40;1.00;;;;;;10365386;28;20201;-79
2022/11/08 13:11:35;;;;;;;9.85;4.53;;;15.50;99.90;;;;;;10336877;28;20197;-90
2022/11/08 13:17:25;;;;;;;12.98;5.30;;;15.10;99.90;;;;;;10364186;28;20217;-87
2022/11/08 13:22:57;;;;;;;9.90;4.88;;;14.50;1.00;;;;;;10370874;28;20243;-82
2022/11/08 13:28:45;;;;;;;11.18;4.63;;;14.50;1.00;;;;;;10330776;28;20207;-83
2022/11/08 13:34:15;;;;;;;15.07;5.73;;;14.20;99.90;;;;;;10366096;28;20504;-81
2022/11/08 13:39:55;;;;;;;12.30;5.40;;;14.00;99.90;;;;;;10362731;28;20200;-82
2022/11/08 13:45:15;;;;;;;13.27;5.50;;;13.80;1.00;;;;;;10329688;28;20512;-81
2022/11/08 13:50:57;;;;;;;9.73;5.57;;;13.80;1.00;;;;;;10356229;28;20191;-80
2022/11/08 13:56:23;;;;;;;15.37;8.33;;;13.60;1.00;;;;;;10321798;28;20208;-80
2022/11/08 14:01:44;;;;;;;11.47;6.50;;;13.40;27.70;;;;;;10338060;28;20229;-81
2022/11/08 14:07:32;;;;;;;17.57;9.07;;;13.10;1.00;;;;;;10368994;28;20196;-83
2022/11/08 14:13:00;;;;;;;30.97;18.77;;;13.00;1.00;;;;;;10324776;28;20240;-79
2022/11/08 14:18:33;;;;;;;19.17;9.87;;;12.70;1.00;;;;;;10357587;28;20200;-87
2022/11/08 14:23:55;;;;;;;22.73;10.07;;;12.60;1.00;;;;;;10375819;28;20234;-85
2022/11/08 14:29:18;;;;;;;24.37;13.37;;;12.40;1.00;;;;;;10385558;28;20205;-87
2022/11/08 14:34:39;;;;;;;18.87;9.03;;;12.30;1.00;;;;;;10345131;28;20212;-87
2022/11/08 14:40:01;;;;;;;20.50;10.80;;;12.00;1.00;;;;;;10345317;28;20282;-86
2022/11/08 14:45:27;;;;;;;16.77;9.70;;;11.90;1.00;;;;;;10335999;28;20215;-83
2022/11/08 14:50:48;;;;;;;21.77;12.10;;;11.80;1.00;;;;;;10369558;28;20204;-86
2022/11/08 14:56:15;;;;;;;22.47;12.50;;;11.60;1.00;;;;;;10384736;28;20243;-85
2022/11/08 15:01:37;;;;;;;17.77;11.80;;;11.50;9.90;;;;;;10371096;28;20518;-86
2022/11/08 15:06:58;;;;;;;22.07;14.00;;;11.30;46.80;;;;;;10349844;28;20238;-83
2022/11/08 15:12:22;;;;;;;29.23;16.33;;;11.20;73.50;;;;;;10369981;28;20277;-85
2022/11/08 15:17:44;;;;;;;26.10;13.40;;;11.10;85.20;;;;;;10383478;28;20192;-85
2022/11/08 15:23:42;;;;;;;47.80;21.33;;;11.00;99.40;;;;;;10374577;28;20247;-93
2022/11/08 15:29:13;;;;;;;46.07;22.33;;;;;;;;;;10362595;28;20262;-87
2022/11/08 15:34:37;;;;;;;41.03;21.90;;;;;;;;;;10363152;28;20216;-88
2022/11/08 15:40:06;;;;;;;41.03;22.07;;;;;;;;;;10362131;28;20289;-86
2022/11/08 15:45:31;;;;;;;42.63;23.23;;;;;;;;;;10365199;28;20209;-85
2022/11/08 15:50:52;;;;;;;53.77;29.60;;;10.60;99.90;;;;;;10339093;28;20332;-85
2022/11/08 15:56:13;;;;;;;49.03;30.63;;;10.50;99.90;;;;;;10321074;28;20240;-85
2022/11/08 16:01:34;;;;;;;58.30;36.97;;;10.40;99.90;;;;;;10323632;28;20240;-84
2022/11/08 16:06:58;;;;;;;84.17;47.70;;;10.30;99.90;;;;;;10346852;28;20207;-87
2022/11/08 16:12:20;;;;;;;84.30;46.63;;;10.30;99.90;;;;;;10396275;28;20242;-81
2022/11/08 16:17:41;;;;;;;74.57;42.43;;;10.20;99.90;;;;;;10395677;28;20191;-81
2022/11/08 16:23:08;;;;;;;83.83;46.50;;;10.10;99.90;;;;;;10393638;28;20244;-81
2022/11/08 16:28:35;;;;;;;79.03;42.40;;;10.10;99.90;;;;;;10395699;28;20222;-81
2022/11/08 16:33:55;;;;;;;61.10;31.63;;;10.10;99.90;;;;;;10350802;28;20200;-81
2022/11/08 16:39:26;;;;;;;52.67;26.33;;;10.00;99.90;;;;;;10380685;28;20510;-81
2022/11/08 16:44:47;;;;;;;38.30;21.20;;;10.00;99.90;;;;;;10348883;28;20534;-82
2022/11/08 16:50:17;;;;;;;33.03;18.80;;;10.00;99.90;;;;;;10342301;28;20230;-82
2022/11/08 16:55:38;;;;;;;31.37;18.03;;;9.90;99.90;;;;;;10381066;28;20198;-83
2022/11/08 17:00:59;;;;;;;22.37;13.00;;;9.90;99.90;;;;;;10395043;28;20222;-82
2022/11/08 17:06:22;;;;;;;20.63;11.07;;;9.90;99.90;;;;;;10369932;28;20187;-82
2022/11/08 17:11:43;;;;;;;19.80;12.33;;;9.90;99.90;;;;;;10381665;28;20385;-82
2022/11/08 17:17:04;;;;;;;21.07;13.23;;;9.90;99.90;;;;;;10368132;28;20261;-82
2022/11/08 17:22:25;;;;;;;15.83;11.27;;;9.90;99.90;;;;;;10379632;28;20235;-82
2022/11/08 17:27:49;;;;;;;17.93;12.03;;;9.80;99.90;;;;;;10395228;28;20486;-82
2022/11/08 17:33:11;;;;;;;23.10;12.00;;;9.70;99.90;;;;;;10381451;28;20224;-82
2022/11/08 17:38:34;;;;;;;17.47;10.90;;;9.70;99.90;;;;;;10379603;28;20279;-82
2022/11/08 17:43:55;;;;;;;20.20;12.27;;;9.70;99.90;;;;;;10367627;28;20238;-82
2022/11/08 17:49:16;;;;;;;21.53;13.00;;;9.70;99.90;;;;;;10370376;28;20195;-82
2022/11/08 17:54:37;;;;;;;29.67;16.93;;;9.70;99.90;;;;;;10349274;28;20203;-82
2022/11/08 17:59:59;;;;;;;27.43;17.73;;;9.60;99.90;;;;;;10358640;28;20196;-82
2022/11/08 18:05:20;;;;;;;26.83;15.70;;;9.60;99.90;;;;;;10402731;28;20204;-83
2022/11/08 18:10:44;;;;;;;28.70;18.93;;;9.60;99.90;;;;;;10378724;28;20190;-82
2022/11/08 18:16:08;;;;;;;28.90;18.53;;;9.50;99.90;;;;;;10389439;28;20201;-82
2022/11/08 18:21:30;;;;;;;40.83;24.10;;;9.50;99.90;;;;;;10388426;28;20299;-82
2022/11/08 18:26:51;;;;;;;39.07;23.70;;;9.50;99.90;;;;;;10374391;28;20279;-82
2022/11/08 18:32:12;;;;;;;37.33;24.53;;;9.50;99.90;;;;;;10402205;28;20384;-82
2022/11/08 18:37:33;;;;;;;39.37;21.83;;;9.50;99.90;;;;;;10388421;28;20214;-81
2022/11/08 18:42:55;;;;;;;50.47;30.83;;;9.40;99.90;;;;;;10360148;28;20393;-82
2022/11/08 18:48:16;;;;;;;57.93;32.80;;;9.40;99.90;;;;;;10347324;28;20243;-82
2022/11/08 18:53:38;;;;;;;61.53;34.67;;;9.30;99.90;;;;;;10333574;28;20464;-83
2022/11/08 18:58:59;;;;;;;86.60;43.53;;;9.30;99.90;;;;;;10346499;28;20188;-82
2022/11/08 19:04:20;;;;;;;91.97;45.50;;;9.30;99.90;;;;;;10346667;28;20254;-82
2022/11/08 19:09:41;;;;;;;54.47;29.57;;;9.30;99.90;;;;;;10360428;28;20417;-82
2022/11/08 19:15:03;;;;;;;50.10;28.70;;;9.30;99.90;;;;;;10346392;28;20210;-82
2022/11/08 19:20:24;;;;;;;36.53;23.37;;;9.30;99.90;;;;;;10400428;28;20219;-82
2022/11/08 19:25:52;;;;;;;33.70;19.83;;;9.30;99.90;;;;;;10346005;28;20229;-82
2022/11/08 19:31:17;;;;;;;31.23;19.30;;;9.30;99.90;;;;;;10359608;28;20200;-82
2022/11/08 19:36:42;;;;;;;36.37;23.33;;;9.30;99.90;;;;;;10359786;28;20209;-82
2022/11/08 19:42:03;;;;;;;35.30;22.47;;;9.20;99.90;;;;;;10358813;28;20451;-82
2022/11/08 19:47:24;;;;;;;38.23;24.47;;;9.20;99.90;;;;;;10358469;28;20201;-81
2022/11/08 19:52:45;;;;;;;47.13;27.73;;;9.20;99.90;;;;;;10344852;28;20210;-82
2022/11/08 19:58:07;;;;;;;48.20;30.00;;;9.20;99.90;;;;;;10382930;28;20200;-82
2022/11/08 20:03:29;;;;;;;30.03;21.27;;;9.20;99.90;;;;;;10384947;28;20419;-82
2022/11/08 20:08:53;;;;;;;30.40;19.33;;;9.10;99.90;;;;;;10348642;28;20204;-82
2022/11/08 20:14:14;;;;;;;38.43;24.47;;;9.10;99.90;;;;;;10343439;28;20254;-82
2022/11/08 20:19:35;;;;;;;32.37;20.10;;;9.00;99.90;;;;;;10370286;28;20298;-81
2022/11/08 20:24:56;;;;;;;28.47;18.57;;;9.00;99.90;;;;;;10369237;28;20242;-82
2022/11/08 20:30:18;;;;;;;29.93;21.10;;;;;;;;;;10397532;28;20256;-81
2022/11/08 20:35:40;;;;;;;37.90;23.70;;;9.00;99.90;;;;;;10383425;28;20437;-82
2022/11/08 20:41:01;;;;;;;34.23;23.03;;;9.00;99.90;;;;;;10391843;28;20239;-82
2022/11/08 20:46:24;;;;;;;35.10;21.90;;;8.90;99.90;;;;;;10396768;28;20513;-82
2022/11/08 20:51:45;;;;;;;30.07;18.03;;;8.90;99.90;;;;;;10369151;28;20202;-81
2022/11/08 20:57:07;;;;;;;26.37;16.73;;;8.80;99.90;;;;;;10393726;28;20551;-81
2022/11/08 21:02:28;;;;;;;26.00;17.20;;;8.70;99.90;;;;;;10341732;28;20227;-81
2022/11/08 21:07:49;;;;;;;19.83;14.17;;;9.10;99.90;;;;;;10354513;28;20218;-82
2022/11/08 21:13:32;;;;;;;31.90;19.10;;;8.90;99.90;;;;;;10384819;28;20202;-81
2022/11/08 21:18:53;;;;;;;24.40;16.57;;;8.90;99.90;;;;;;10396122;28;20373;-81
2022/11/08 21:24:15;;;;;;;30.30;18.60;;;8.80;99.90;;;;;;10394801;28;20301;-81
2022/11/08 21:29:37;;;;;;;72.57;37.70;;;8.80;99.90;;;;;;10382114;28;20220;-82
2022/11/08 21:34:58;;;;;;;94.30;44.40;;;8.80;99.90;;;;;;10382429;28;20213;-82
2022/11/08 21:40:19;;;;;;;60.07;34.17;;;8.90;99.90;;;;;;10335504;28;20273;-84
2022/11/08 21:45:41;;;;;;;43.77;28.10;;;8.90;99.90;;;;;;10340780;28;20306;-83
2022/11/08 21:51:02;;;;;;;36.77;23.87;;;8.80;99.90;;;;;;10341482;28;20399;-83
2022/11/08 21:56:28;;;;;;;28.93;18.57;;;8.80;99.90;;;;;;10330447;28;20226;-82
2022/11/08 22:02:19;;;;;;;28.13;19.13;;;8.80;99.90;;;;;;10353180;28;20231;-82
2022/11/08 22:08:02;;;;;;;21.13;15.63;;;8.80;99.90;;;;;;10380676;28;20192;-81
2022/11/08 22:14:13;;;;;;;24.70;15.63;;;;;;;;;;10413798;28;20179;-81
2022/11/08 22:20:08;;;;;;;19.80;12.53;;;;;;;;;;10421410;28;20236;-81
2022/11/08 22:25:46;;;;;;;23.87;13.40;;;;;;;;;;10435735;28;20200;-82
2022/11/08 22:31:19;;;;;;;35.67;18.40;;;;;;;;;;10418336;28;20202;-81
2022/11/08 22:37:01;;;;;;;27.77;16.90;;;;;;;;;;10431863;28;20202;-81
2022/11/08 22:42:28;;;;;;;34.63;17.83;;;;;;;;;;10398115;28;20224;-82
2022/11/08 22:47:59;;;;;;;28.27;17.43;;;;;;;;;;10430211;28;20210;-81
2022/11/08 23:17:20;;;;;;;32.90;20.10;;;;;;;;;;10467768;28;20177;-82
2022/11/08 23:36:14;;;;;;;20.80;13.57;;;;;;;;;;10467888;28;20258;-80
2022/11/08 23:48:47;;;;;;;18.17;11.73;;;;;;;;;;10470028;28;20190;-81
2022/11/08 23:54:22;;;;;;;15.10;10.50;;;;;;;;;;10466491;28;20190;-79
2022/11/08 23:59:48;;;;;;;16.30;10.83;;;;;;;;;;10469221;28;20222;-80
